sensor_id;sensor_type;location;lat;lon;timestamp;P1;durP1;ratioP1;P2;durP2;ratioP2
6868;SDS011;3473;42.604;23.496;2024-02-04T00:00:45;18.63;;;9.40;;
6868;SDS011;3473;42.604;23.496;2024-02-04T00:02:18;20.80;;;9.53;;
6868;SDS011;3473;42.604;23.496;2024-02-04T00:03:50;24.27;;;11.90;;
6868;SDS011;3473;42.604;23.496;2024-02-04T00:05:22;22.67;;;12.30;;
6868;SDS011;3473;42.604;23.496;2024-02-04T00:06:53;28.17;;;14.83;;
6868;SDS011;3473;42.604;23.496;2024-02-04T00:08:25;31.53;;;17.23;;
6868;SDS011;3473;42.604;23.496;2024-02-04T00:09:56;24.10;;;14.37;;
6868;SDS011;3473;42.604;23.496;2024-02-04T00:11:28;30.37;;;16.53;;
6868;SDS011;3473;42.604;23.496;2024-02-04T00:12:59;27.43;;;14.73;;
6868;SDS011;3473;42.604;23.496;2024-02-04T00:14:30;26.53;;;14.73;;
6868;SDS011;3473;42.604;23.496;2024-02-04T00:16:02;25.30;;;13.17;;
6868;SDS011;3473;42.604;23.496;2024-02-04T00:17:35;22.07;;;11.73;;
6868;SDS011;3473;42.604;23.496;2024-02-04T00:19:07;22.93;;;11.63;;
6868;SDS011;3473;42.604;23.496;2024-02-04T00:20:38;21.97;;;10.20;;
6868;SDS011;3473;42.604;23.496;2024-02-04T00:22:10;22.53;;;11.00;;
6868;SDS011;3473;42.604;23.496;2024-02-04T00:23:41;27.00;;;12.60;;
6868;SDS011;3473;42.604;23.496;2024-02-04T00:25:13;99.10;;;45.50;;
6868;SDS011;3473;42.604;23.496;2024-02-04T00:26:45;18.87;;;10.63;;
6868;SDS011;3473;42.604;23.496;2024-02-04T00:28:17;16.27;;;9.30;;
6868;SDS011;3473;42.604;23.496;2024-02-04T00:29:49;22.23;;;10.63;;
6868;SDS011;3473;42.604;23.496;2024-02-04T00:31:20;12.07;;;7.67;;
6868;SDS011;3473;42.604;23.496;2024-02-04T00:32:53;17.20;;;8.47;;
6868;SDS011;3473;42.604;23.496;2024-02-04T00:34:25;20.57;;;12.03;;
6868;SDS011;3473;42.604;23.496;2024-02-04T00:35:55;14.23;;;8.60;;
6868;SDS011;3473;42.604;23.496;2024-02-04T00:37:27;15.80;;;8.67;;
6868;SDS011;3473;42.604;23.496;2024-02-04T00:38:59;16.67;;;9.30;;
6868;SDS011;3473;42.604;23.496;2024-02-04T00:40:30;20.40;;;11.53;;
6868;SDS011;3473;42.604;23.496;2024-02-04T00:42:02;13.20;;;7.60;;
6868;SDS011;3473;42.604;23.496;2024-02-04T00:43:33;25.47;;;14.23;;
6868;SDS011;3473;42.604;23.496;2024-02-04T00:45:05;16.73;;;8.53;;
6868;SDS011;3473;42.604;23.496;2024-02-04T00:46:38;13.20;;;7.70;;
6868;SDS011;3473;42.604;23.496;2024-02-04T00:48:10;22.03;;;12.20;;
6868;SDS011;3473;42.604;23.496;2024-02-04T00:49:42;27.07;;;15.40;;
6868;SDS011;3473;42.604;23.496;2024-02-04T00:51:12;15.00;;;8.17;;
6868;SDS011;3473;42.604;23.496;2024-02-04T00:52:47;19.87;;;10.97;;
6868;SDS011;3473;42.604;23.496;2024-02-04T00:54:18;19.60;;;10.83;;
6868;SDS011;3473;42.604;23.496;2024-02-04T00:55:50;44.77;;;21.67;;
6868;SDS011;3473;42.604;23.496;2024-02-04T00:57:21;15.67;;;9.20;;
6868;SDS011;3473;42.604;23.496;2024-02-04T00:58:53;35.97;;;19.33;;
6868;SDS011;3473;42.604;23.496;2024-02-04T01:00:24;17.93;;;9.73;;
6868;SDS011;3473;42.604;23.496;2024-02-04T01:01:56;13.43;;;8.90;;
6868;SDS011;3473;42.604;23.496;2024-02-04T01:03:30;23.47;;;13.53;;
6868;SDS011;3473;42.604;23.496;2024-02-04T01:05:03;11.07;;;6.93;;
6868;SDS011;3473;42.604;23.496;2024-02-04T01:06:34;11.63;;;7.40;;
6868;SDS011;3473;42.604;23.496;2024-02-04T01:08:06;11.43;;;7.13;;
6868;SDS011;3473;42.604;23.496;2024-02-04T01:09:37;14.27;;;8.80;;
6868;SDS011;3473;42.604;23.496;2024-02-04T01:11:09;12.17;;;8.00;;
6868;SDS011;3473;42.604;23.496;2024-02-04T01:12:40;15.37;;;8.80;;
6868;SDS011;3473;42.604;23.496;2024-02-04T01:14:12;12.13;;;7.93;;
6868;SDS011;3473;42.604;23.496;2024-02-04T01:15:43;12.90;;;6.33;;
6868;SDS011;3473;42.604;23.496;2024-02-04T01:17:15;15.00;;;9.73;;
6868;SDS011;3473;42.604;23.496;2024-02-04T01:18:47;10.47;;;7.03;;
6868;SDS011;3473;42.604;23.496;2024-02-04T01:20:19;11.53;;;6.90;;
6868;SDS011;3473;42.604;23.496;2024-02-04T01:21:50;19.27;;;10.47;;
6868;SDS011;3473;42.604;23.496;2024-02-04T01:23:21;13.20;;;7.93;;
6868;SDS011;3473;42.604;23.496;2024-02-04T01:24:53;11.00;;;7.13;;
6868;SDS011;3473;42.604;23.496;2024-02-04T01:26:25;12.00;;;7.03;;
6868;SDS011;3473;42.604;23.496;2024-02-04T01:27:56;10.53;;;6.77;;
6868;SDS011;3473;42.604;23.496;2024-02-04T01:29:27;22.43;;;14.63;;
6868;SDS011;3473;42.604;23.496;2024-02-04T01:30:59;19.80;;;11.87;;
6868;SDS011;3473;42.604;23.496;2024-02-04T01:32:30;16.60;;;11.27;;
6868;SDS011;3473;42.604;23.496;2024-02-04T01:34:03;23.87;;;16.43;;
6868;SDS011;3473;42.604;23.496;2024-02-04T01:35:34;18.17;;;11.70;;
6868;SDS011;3473;42.604;23.496;2024-02-04T01:37:06;14.83;;;8.30;;
6868;SDS011;3473;42.604;23.496;2024-02-04T01:38:37;13.57;;;8.47;;
6868;SDS011;3473;42.604;23.496;2024-02-04T01:40:09;19.60;;;13.57;;
6868;SDS011;3473;42.604;23.496;2024-02-04T01:41:41;17.00;;;10.47;;
6868;SDS011;3473;42.604;23.496;2024-02-04T01:43:15;11.83;;;7.90;;
6868;SDS011;3473;42.604;23.496;2024-02-04T01:44:47;12.00;;;8.00;;
6868;SDS011;3473;42.604;23.496;2024-02-04T01:46:18;13.17;;;7.30;;
6868;SDS011;3473;42.604;23.496;2024-02-04T01:47:50;15.97;;;7.40;;
6868;SDS011;3473;42.604;23.496;2024-02-04T01:49:22;12.47;;;7.30;;
6868;SDS011;3473;42.604;23.496;2024-02-04T01:50:55;13.30;;;8.30;;
6868;SDS011;3473;42.604;23.496;2024-02-04T01:52:28;19.37;;;11.00;;
6868;SDS011;3473;42.604;23.496;2024-02-04T01:54:01;16.43;;;8.50;;
6868;SDS011;3473;42.604;23.496;2024-02-04T01:55:34;12.17;;;6.97;;
6868;SDS011;3473;42.604;23.496;2024-02-04T01:57:05;9.63;;;6.63;;
6868;SDS011;3473;42.604;23.496;2024-02-04T01:58:36;10.53;;;6.30;;
6868;SDS011;3473;42.604;23.496;2024-02-04T02:00:08;10.27;;;5.97;;
6868;SDS011;3473;42.604;23.496;2024-02-04T02:01:40;9.77;;;6.47;;
6868;SDS011;3473;42.604;23.496;2024-02-04T02:03:12;9.47;;;6.30;;
6868;SDS011;3473;42.604;23.496;2024-02-04T02:04:46;8.50;;;5.50;;
6868;SDS011;3473;42.604;23.496;2024-02-04T02:06:18;11.37;;;5.60;;
6868;SDS011;3473;42.604;23.496;2024-02-04T02:07:49;8.63;;;5.03;;
6868;SDS011;3473;42.604;23.496;2024-02-04T02:09:21;7.70;;;5.33;;
6868;SDS011;3473;42.604;23.496;2024-02-04T02:10:55;13.33;;;5.57;;
6868;SDS011;3473;42.604;23.496;2024-02-04T02:12:30;7.57;;;5.10;;
6868;SDS011;3473;42.604;23.496;2024-02-04T02:14:02;7.77;;;4.80;;
6868;SDS011;3473;42.604;23.496;2024-02-04T02:15:39;7.00;;;5.07;;
6868;SDS011;3473;42.604;23.496;2024-02-04T02:17:15;8.23;;;5.30;;
6868;SDS011;3473;42.604;23.496;2024-02-04T02:18:50;8.40;;;4.80;;
6868;SDS011;3473;42.604;23.496;2024-02-04T02:20:25;7.93;;;5.03;;
6868;SDS011;3473;42.604;23.496;2024-02-04T02:22:02;10.17;;;4.97;;
6868;SDS011;3473;42.604;23.496;2024-02-04T02:23:48;7.53;;;5.50;;
6868;SDS011;3473;42.604;23.496;2024-02-04T02:25:24;9.93;;;5.50;;
6868;SDS011;3473;42.604;23.496;2024-02-04T02:26:55;9.60;;;6.00;;
6868;SDS011;3473;42.604;23.496;2024-02-04T02:28:29;9.70;;;5.70;;
6868;SDS011;3473;42.604;23.496;2024-02-04T02:29:59;10.20;;;5.30;;
6868;SDS011;3473;42.604;23.496;2024-02-04T02:31:31;9.37;;;5.30;;
6868;SDS011;3473;42.604;23.496;2024-02-04T02:33:02;8.40;;;5.40;;
6868;SDS011;3473;42.604;23.496;2024-02-04T02:34:36;7.70;;;5.13;;
6868;SDS011;3473;42.604;23.496;2024-02-04T02:36:09;9.13;;;5.47;;
6868;SDS011;3473;42.604;23.496;2024-02-04T02:37:46;7.93;;;5.53;;
6868;SDS011;3473;42.604;23.496;2024-02-04T02:39:21;8.17;;;5.03;;
6868;SDS011;3473;42.604;23.496;2024-02-04T02:40:58;9.73;;;5.60;;
6868;SDS011;3473;42.604;23.496;2024-02-04T02:42:29;7.73;;;5.07;;
6868;SDS011;3473;42.604;23.496;2024-02-04T02:44:02;8.27;;;5.10;;
6868;SDS011;3473;42.604;23.496;2024-02-04T02:45:33;7.67;;;4.90;;
6868;SDS011;3473;42.604;23.496;2024-02-04T02:47:06;10.57;;;5.30;;
6868;SDS011;3473;42.604;23.496;2024-02-04T02:48:37;7.13;;;4.50;;
6868;SDS011;3473;42.604;23.496;2024-02-04T02:50:09;7.93;;;4.63;;
6868;SDS011;3473;42.604;23.496;2024-02-04T02:51:40;9.13;;;4.73;;
6868;SDS011;3473;42.604;23.496;2024-02-04T02:53:12;8.33;;;4.83;;
6868;SDS011;3473;42.604;23.496;2024-02-04T02:54:42;7.53;;;5.00;;
6868;SDS011;3473;42.604;23.496;2024-02-04T02:56:16;9.73;;;4.50;;
6868;SDS011;3473;42.604;23.496;2024-02-04T02:57:47;6.27;;;4.23;;
6868;SDS011;3473;42.604;23.496;2024-02-04T02:59:18;6.57;;;4.33;;
6868;SDS011;3473;42.604;23.496;2024-02-04T03:00:49;6.30;;;3.83;;
6868;SDS011;3473;42.604;23.496;2024-02-04T03:02:21;6.17;;;3.60;;
6868;SDS011;3473;42.604;23.496;2024-02-04T03:03:52;7.17;;;3.87;;
6868;SDS011;3473;42.604;23.496;2024-02-04T03:05:24;6.30;;;3.80;;
6868;SDS011;3473;42.604;23.496;2024-02-04T03:06:55;6.87;;;4.00;;
6868;SDS011;3473;42.604;23.496;2024-02-04T03:08:27;6.80;;;3.73;;
6868;SDS011;3473;42.604;23.496;2024-02-04T03:09:58;6.20;;;3.70;;
6868;SDS011;3473;42.604;23.496;2024-02-04T03:11:31;5.40;;;3.70;;
6868;SDS011;3473;42.604;23.496;2024-02-04T03:13:02;7.60;;;4.63;;
6868;SDS011;3473;42.604;23.496;2024-02-04T03:14:34;7.80;;;5.23;;
6868;SDS011;3473;42.604;23.496;2024-02-04T03:16:09;8.43;;;4.80;;
6868;SDS011;3473;42.604;23.496;2024-02-04T03:17:42;6.47;;;4.50;;
6868;SDS011;3473;42.604;23.496;2024-02-04T03:19:13;8.63;;;4.90;;
6868;SDS011;3473;42.604;23.496;2024-02-04T03:20:45;8.37;;;5.10;;
6868;SDS011;3473;42.604;23.496;2024-02-04T03:22:16;7.10;;;4.90;;
6868;SDS011;3473;42.604;23.496;2024-02-04T03:23:47;9.40;;;5.20;;
6868;SDS011;3473;42.604;23.496;2024-02-04T03:25:18;9.40;;;5.60;;
6868;SDS011;3473;42.604;23.496;2024-02-04T03:26:51;9.20;;;6.00;;
6868;SDS011;3473;42.604;23.496;2024-02-04T03:28:22;9.33;;;5.40;;
6868;SDS011;3473;42.604;23.496;2024-02-04T03:29:54;9.33;;;5.60;;
6868;SDS011;3473;42.604;23.496;2024-02-04T03:31:25;10.13;;;5.37;;
6868;SDS011;3473;42.604;23.496;2024-02-04T03:32:57;9.90;;;6.37;;
6868;SDS011;3473;42.604;23.496;2024-02-04T03:34:28;10.50;;;6.10;;
6868;SDS011;3473;42.604;23.496;2024-02-04T03:36:00;10.63;;;6.53;;
6868;SDS011;3473;42.604;23.496;2024-02-04T03:37:31;10.77;;;6.23;;
6868;SDS011;3473;42.604;23.496;2024-02-04T03:39:03;8.00;;;5.97;;
6868;SDS011;3473;42.604;23.496;2024-02-04T03:40:34;9.07;;;6.00;;
6868;SDS011;3473;42.604;23.496;2024-02-04T03:42:07;11.20;;;6.70;;
6868;SDS011;3473;42.604;23.496;2024-02-04T03:43:38;8.77;;;6.20;;
6868;SDS011;3473;42.604;23.496;2024-02-04T03:45:10;8.43;;;5.53;;
6868;SDS011;3473;42.604;23.496;2024-02-04T03:46:40;7.97;;;5.97;;
6868;SDS011;3473;42.604;23.496;2024-02-04T03:48:12;9.50;;;5.87;;
6868;SDS011;3473;42.604;23.496;2024-02-04T03:49:44;9.53;;;6.67;;
6868;SDS011;3473;42.604;23.496;2024-02-04T03:51:15;11.10;;;6.83;;
6868;SDS011;3473;42.604;23.496;2024-02-04T03:52:48;14.40;;;6.90;;
6868;SDS011;3473;42.604;23.496;2024-02-04T03:54:19;12.10;;;6.87;;
6868;SDS011;3473;42.604;23.496;2024-02-04T03:55:50;9.57;;;6.23;;
6868;SDS011;3473;42.604;23.496;2024-02-04T03:57:23;8.33;;;5.57;;
6868;SDS011;3473;42.604;23.496;2024-02-04T03:58:55;9.53;;;6.13;;
6868;SDS011;3473;42.604;23.496;2024-02-04T04:00:25;8.03;;;6.00;;
6868;SDS011;3473;42.604;23.496;2024-02-04T04:01:57;9.43;;;6.00;;
6868;SDS011;3473;42.604;23.496;2024-02-04T04:03:28;11.17;;;6.00;;
6868;SDS011;3473;42.604;23.496;2024-02-04T04:05:00;11.10;;;6.27;;
6868;SDS011;3473;42.604;23.496;2024-02-04T04:06:31;10.87;;;6.00;;
6868;SDS011;3473;42.604;23.496;2024-02-04T04:08:03;11.17;;;6.50;;
6868;SDS011;3473;42.604;23.496;2024-02-04T04:09:34;21.80;;;10.57;;
6868;SDS011;3473;42.604;23.496;2024-02-04T04:11:07;23.60;;;13.70;;
6868;SDS011;3473;42.604;23.496;2024-02-04T04:12:40;18.10;;;10.87;;
6868;SDS011;3473;42.604;23.496;2024-02-04T04:14:12;14.97;;;9.33;;
6868;SDS011;3473;42.604;23.496;2024-02-04T04:15:44;14.03;;;7.77;;
6868;SDS011;3473;42.604;23.496;2024-02-04T04:17:15;11.23;;;6.27;;
6868;SDS011;3473;42.604;23.496;2024-02-04T04:18:47;10.20;;;7.00;;
6868;SDS011;3473;42.604;23.496;2024-02-04T04:20:17;23.40;;;13.10;;
6868;SDS011;3473;42.604;23.496;2024-02-04T04:21:49;27.30;;;14.23;;
6868;SDS011;3473;42.604;23.496;2024-02-04T04:23:20;23.03;;;11.93;;
6868;SDS011;3473;42.604;23.496;2024-02-04T04:24:52;24.10;;;12.57;;
6868;SDS011;3473;42.604;23.496;2024-02-04T04:26:23;16.83;;;10.43;;
6868;SDS011;3473;42.604;23.496;2024-02-04T04:27:56;18.83;;;11.00;;
6868;SDS011;3473;42.604;23.496;2024-02-04T04:29:28;21.37;;;11.47;;
6868;SDS011;3473;42.604;23.496;2024-02-04T04:31:00;19.87;;;10.90;;
6868;SDS011;3473;42.604;23.496;2024-02-04T04:32:31;18.10;;;10.50;;
6868;SDS011;3473;42.604;23.496;2024-02-04T04:34:03;21.73;;;12.70;;
6868;SDS011;3473;42.604;23.496;2024-02-04T04:35:33;32.27;;;18.77;;
6868;SDS011;3473;42.604;23.496;2024-02-04T04:37:05;30.63;;;18.20;;
6868;SDS011;3473;42.604;23.496;2024-02-04T04:38:37;19.77;;;11.30;;
6868;SDS011;3473;42.604;23.496;2024-02-04T04:40:09;17.17;;;10.10;;
6868;SDS011;3473;42.604;23.496;2024-02-04T04:41:43;16.37;;;10.10;;
6868;SDS011;3473;42.604;23.496;2024-02-04T04:43:16;14.60;;;9.07;;
6868;SDS011;3473;42.604;23.496;2024-02-04T04:44:48;17.73;;;11.47;;
6868;SDS011;3473;42.604;23.496;2024-02-04T04:46:19;18.43;;;11.23;;
6868;SDS011;3473;42.604;23.496;2024-02-04T04:47:51;16.03;;;9.80;;
6868;SDS011;3473;42.604;23.496;2024-02-04T04:49:22;17.17;;;10.03;;
6868;SDS011;3473;42.604;23.496;2024-02-04T04:50:54;20.37;;;10.43;;
6868;SDS011;3473;42.604;23.496;2024-02-04T04:52:25;17.23;;;11.60;;
6868;SDS011;3473;42.604;23.496;2024-02-04T04:53:57;18.13;;;12.47;;
6868;SDS011;3473;42.604;23.496;2024-02-04T04:55:27;17.10;;;11.13;;
6868;SDS011;3473;42.604;23.496;2024-02-04T04:56:59;17.10;;;10.87;;
6868;SDS011;3473;42.604;23.496;2024-02-04T04:58:32;19.30;;;10.43;;
6868;SDS011;3473;42.604;23.496;2024-02-04T05:00:04;13.53;;;9.27;;
6868;SDS011;3473;42.604;23.496;2024-02-04T05:01:44;30.17;;;16.77;;
6868;SDS011;3473;42.604;23.496;2024-02-04T05:03:16;19.63;;;11.80;;
6868;SDS011;3473;42.604;23.496;2024-02-04T05:04:48;20.73;;;11.80;;
6868;SDS011;3473;42.604;23.496;2024-02-04T05:06:19;14.33;;;9.07;;
6868;SDS011;3473;42.604;23.496;2024-02-04T05:07:51;16.13;;;10.43;;
6868;SDS011;3473;42.604;23.496;2024-02-04T05:09:22;15.77;;;9.30;;
6868;SDS011;3473;42.604;23.496;2024-02-04T05:10:54;14.10;;;8.83;;
6868;SDS011;3473;42.604;23.496;2024-02-04T05:12:25;10.97;;;7.10;;
6868;SDS011;3473;42.604;23.496;2024-02-04T05:13:58;12.77;;;8.17;;
6868;SDS011;3473;42.604;23.496;2024-02-04T05:15:29;12.43;;;7.57;;
6868;SDS011;3473;42.604;23.496;2024-02-04T05:17:01;12.77;;;7.13;;
6868;SDS011;3473;42.604;23.496;2024-02-04T05:18:32;11.80;;;7.40;;
6868;SDS011;3473;42.604;23.496;2024-02-04T05:20:04;14.93;;;8.17;;
6868;SDS011;3473;42.604;23.496;2024-02-04T05:21:38;16.30;;;7.80;;
6868;SDS011;3473;42.604;23.496;2024-02-04T05:23:09;12.73;;;7.57;;
6868;SDS011;3473;42.604;23.496;2024-02-04T05:24:41;15.90;;;8.43;;
6868;SDS011;3473;42.604;23.496;2024-02-04T05:26:12;13.30;;;7.97;;
6868;SDS011;3473;42.604;23.496;2024-02-04T05:27:44;23.10;;;11.87;;
6868;SDS011;3473;42.604;23.496;2024-02-04T05:29:23;18.13;;;9.90;;
6868;SDS011;3473;42.604;23.496;2024-02-04T05:31:10;34.20;;;16.67;;
6868;SDS011;3473;42.604;23.496;2024-02-04T05:32:41;26.70;;;12.57;;
6868;SDS011;3473;42.604;23.496;2024-02-04T05:34:14;28.53;;;14.83;;
6868;SDS011;3473;42.604;23.496;2024-02-04T05:35:46;15.37;;;8.93;;
6868;SDS011;3473;42.604;23.496;2024-02-04T05:37:17;13.93;;;7.93;;
6868;SDS011;3473;42.604;23.496;2024-02-04T05:38:49;13.57;;;8.03;;
6868;SDS011;3473;42.604;23.496;2024-02-04T05:40:20;10.80;;;6.43;;
6868;SDS011;3473;42.604;23.496;2024-02-04T05:41:52;8.37;;;5.70;;
6868;SDS011;3473;42.604;23.496;2024-02-04T05:43:23;8.47;;;5.60;;
6868;SDS011;3473;42.604;23.496;2024-02-04T05:44:56;8.93;;;6.30;;
6868;SDS011;3473;42.604;23.496;2024-02-04T05:46:28;7.33;;;5.77;;
6868;SDS011;3473;42.604;23.496;2024-02-04T05:47:59;7.80;;;5.40;;
6868;SDS011;3473;42.604;23.496;2024-02-04T05:49:31;8.73;;;5.60;;
6868;SDS011;3473;42.604;23.496;2024-02-04T05:51:02;6.73;;;4.87;;
6868;SDS011;3473;42.604;23.496;2024-02-04T05:52:34;6.43;;;4.73;;
6868;SDS011;3473;42.604;23.496;2024-02-04T05:54:04;9.23;;;5.33;;
6868;SDS011;3473;42.604;23.496;2024-02-04T05:55:36;7.17;;;4.80;;
6868;SDS011;3473;42.604;23.496;2024-02-04T05:57:07;8.30;;;5.27;;
6868;SDS011;3473;42.604;23.496;2024-02-04T05:58:41;7.13;;;5.10;;
6868;SDS011;3473;42.604;23.496;2024-02-04T06:00:14;10.83;;;5.80;;
6868;SDS011;3473;42.604;23.496;2024-02-04T06:01:46;17.07;;;8.67;;
6868;SDS011;3473;42.604;23.496;2024-02-04T06:03:17;14.93;;;8.33;;
6868;SDS011;3473;42.604;23.496;2024-02-04T06:04:49;10.17;;;6.30;;
6868;SDS011;3473;42.604;23.496;2024-02-04T06:06:19;10.87;;;6.63;;
6868;SDS011;3473;42.604;23.496;2024-02-04T06:07:51;11.27;;;6.27;;
6868;SDS011;3473;42.604;23.496;2024-02-04T06:09:22;13.27;;;6.93;;
6868;SDS011;3473;42.604;23.496;2024-02-04T06:10:54;9.07;;;5.70;;
6868;SDS011;3473;42.604;23.496;2024-02-04T06:12:25;9.57;;;5.90;;
6868;SDS011;3473;42.604;23.496;2024-02-04T06:13:57;8.97;;;6.30;;
6868;SDS011;3473;42.604;23.496;2024-02-04T06:15:29;9.13;;;5.93;;
6868;SDS011;3473;42.604;23.496;2024-02-04T06:17:01;10.27;;;6.87;;
6868;SDS011;3473;42.604;23.496;2024-02-04T06:18:32;12.17;;;7.30;;
6868;SDS011;3473;42.604;23.496;2024-02-04T06:20:05;45.07;;;19.07;;
6868;SDS011;3473;42.604;23.496;2024-02-04T06:21:36;45.83;;;19.30;;
6868;SDS011;3473;42.604;23.496;2024-02-04T06:23:08;41.07;;;19.23;;
6868;SDS011;3473;42.604;23.496;2024-02-04T06:24:39;19.57;;;10.43;;
6868;SDS011;3473;42.604;23.496;2024-02-04T06:26:11;16.23;;;9.07;;
6868;SDS011;3473;42.604;23.496;2024-02-04T06:27:42;18.10;;;8.93;;
6868;SDS011;3473;42.604;23.496;2024-02-04T06:29:14;16.43;;;9.20;;
6868;SDS011;3473;42.604;23.496;2024-02-04T06:30:46;20.17;;;10.93;;
6868;SDS011;3473;42.604;23.496;2024-02-04T06:32:18;26.93;;;13.60;;
6868;SDS011;3473;42.604;23.496;2024-02-04T06:33:50;35.50;;;17.53;;
6868;SDS011;3473;42.604;23.496;2024-02-04T06:35:22;48.20;;;21.17;;
6868;SDS011;3473;42.604;23.496;2024-02-04T06:36:53;48.60;;;20.97;;
6868;SDS011;3473;42.604;23.496;2024-02-04T06:38:25;51.60;;;20.47;;
6868;SDS011;3473;42.604;23.496;2024-02-04T06:39:55;42.47;;;18.77;;
6868;SDS011;3473;42.604;23.496;2024-02-04T06:41:27;42.13;;;18.20;;
6868;SDS011;3473;42.604;23.496;2024-02-04T06:42:58;26.87;;;12.43;;
6868;SDS011;3473;42.604;23.496;2024-02-04T06:44:29;26.93;;;13.60;;
6868;SDS011;3473;42.604;23.496;2024-02-04T06:46:01;15.80;;;8.77;;
6868;SDS011;3473;42.604;23.496;2024-02-04T06:47:33;13.27;;;7.90;;
6868;SDS011;3473;42.604;23.496;2024-02-04T06:49:04;14.33;;;7.97;;
6868;SDS011;3473;42.604;23.496;2024-02-04T06:50:35;14.47;;;7.53;;
6868;SDS011;3473;42.604;23.496;2024-02-04T06:52:07;16.67;;;10.17;;
6868;SDS011;3473;42.604;23.496;2024-02-04T06:53:38;14.73;;;8.80;;
6868;SDS011;3473;42.604;23.496;2024-02-04T06:55:09;14.70;;;8.30;;
6868;SDS011;3473;42.604;23.496;2024-02-04T06:56:41;13.83;;;8.20;;
6868;SDS011;3473;42.604;23.496;2024-02-04T06:58:12;21.83;;;11.23;;
6868;SDS011;3473;42.604;23.496;2024-02-04T06:59:43;22.83;;;12.37;;
6868;SDS011;3473;42.604;23.496;2024-02-04T07:01:16;15.07;;;8.43;;
6868;SDS011;3473;42.604;23.496;2024-02-04T07:02:47;12.17;;;6.90;;
6868;SDS011;3473;42.604;23.496;2024-02-04T07:04:19;24.60;;;13.83;;
6868;SDS011;3473;42.604;23.496;2024-02-04T07:05:51;15.27;;;9.37;;
6868;SDS011;3473;42.604;23.496;2024-02-04T07:07:23;8.67;;;5.33;;
6868;SDS011;3473;42.604;23.496;2024-02-04T07:08:54;7.73;;;5.03;;
6868;SDS011;3473;42.604;23.496;2024-02-04T07:10:25;7.63;;;4.80;;
6868;SDS011;3473;42.604;23.496;2024-02-04T07:11:56;8.73;;;4.50;;
6868;SDS011;3473;42.604;23.496;2024-02-04T07:13:28;7.13;;;4.30;;
6868;SDS011;3473;42.604;23.496;2024-02-04T07:14:58;6.97;;;4.43;;
6868;SDS011;3473;42.604;23.496;2024-02-04T07:16:32;8.60;;;5.20;;
6868;SDS011;3473;42.604;23.496;2024-02-04T07:18:03;7.27;;;4.60;;
6868;SDS011;3473;42.604;23.496;2024-02-04T07:19:35;9.03;;;4.57;;
6868;SDS011;3473;42.604;23.496;2024-02-04T07:21:06;6.47;;;4.00;;
6868;SDS011;3473;42.604;23.496;2024-02-04T07:22:38;5.67;;;4.30;;
6868;SDS011;3473;42.604;23.496;2024-02-04T07:24:08;7.20;;;4.10;;
6868;SDS011;3473;42.604;23.496;2024-02-04T07:25:40;4.73;;;3.53;;
6868;SDS011;3473;42.604;23.496;2024-02-04T07:27:11;4.50;;;3.67;;
6868;SDS011;3473;42.604;23.496;2024-02-04T07:28:43;4.97;;;3.60;;
6868;SDS011;3473;42.604;23.496;2024-02-04T07:30:14;4.87;;;3.90;;
6868;SDS011;3473;42.604;23.496;2024-02-04T07:31:47;6.27;;;3.70;;
6868;SDS011;3473;42.604;23.496;2024-02-04T07:33:18;5.13;;;3.87;;
6868;SDS011;3473;42.604;23.496;2024-02-04T07:34:50;5.40;;;3.60;;
6868;SDS011;3473;42.604;23.496;2024-02-04T07:36:20;4.43;;;3.20;;
6868;SDS011;3473;42.604;23.496;2024-02-04T07:37:52;6.33;;;3.67;;
6868;SDS011;3473;42.604;23.496;2024-02-04T07:39:23;5.40;;;4.03;;
6868;SDS011;3473;42.604;23.496;2024-02-04T07:40:54;4.60;;;3.10;;
6868;SDS011;3473;42.604;23.496;2024-02-04T07:42:28;5.37;;;3.30;;
6868;SDS011;3473;42.604;23.496;2024-02-04T07:44:00;5.30;;;3.87;;
6868;SDS011;3473;42.604;23.496;2024-02-04T07:45:31;4.90;;;3.77;;
6868;SDS011;3473;42.604;23.496;2024-02-04T07:47:04;6.93;;;4.40;;
6868;SDS011;3473;42.604;23.496;2024-02-04T07:48:35;4.93;;;3.90;;
6868;SDS011;3473;42.604;23.496;2024-02-04T07:50:07;7.07;;;4.30;;
6868;SDS011;3473;42.604;23.496;2024-02-04T07:51:38;5.30;;;3.73;;
6868;SDS011;3473;42.604;23.496;2024-02-04T07:53:10;5.43;;;3.70;;
6868;SDS011;3473;42.604;23.496;2024-02-04T07:54:41;11.97;;;6.30;;
6868;SDS011;3473;42.604;23.496;2024-02-04T07:56:13;8.37;;;5.83;;
6868;SDS011;3473;42.604;23.496;2024-02-04T07:57:44;6.87;;;4.17;;
6868;SDS011;3473;42.604;23.496;2024-02-04T07:59:15;5.27;;;3.80;;
6868;SDS011;3473;42.604;23.496;2024-02-04T08:00:46;5.63;;;4.17;;
6868;SDS011;3473;42.604;23.496;2024-02-04T08:02:19;6.00;;;4.00;;
6868;SDS011;3473;42.604;23.496;2024-02-04T08:03:50;5.80;;;4.00;;
6868;SDS011;3473;42.604;23.496;2024-02-04T08:05:21;5.97;;;3.87;;
6868;SDS011;3473;42.604;23.496;2024-02-04T08:06:53;4.23;;;3.33;;
6868;SDS011;3473;42.604;23.496;2024-02-04T08:08:25;7.13;;;3.47;;
6868;SDS011;3473;42.604;23.496;2024-02-04T08:09:56;3.87;;;3.27;;
6868;SDS011;3473;42.604;23.496;2024-02-04T08:11:27;6.70;;;3.83;;
6868;SDS011;3473;42.604;23.496;2024-02-04T08:12:58;5.40;;;3.97;;
6868;SDS011;3473;42.604;23.496;2024-02-04T08:14:30;4.57;;;3.10;;
6868;SDS011;3473;42.604;23.496;2024-02-04T08:16:00;7.40;;;4.30;;
6868;SDS011;3473;42.604;23.496;2024-02-04T08:17:33;4.80;;;3.53;;
6868;SDS011;3473;42.604;23.496;2024-02-04T08:19:04;5.77;;;4.10;;
6868;SDS011;3473;42.604;23.496;2024-02-04T08:20:36;9.20;;;4.50;;
6868;SDS011;3473;42.604;23.496;2024-02-04T08:22:07;5.33;;;3.80;;
6868;SDS011;3473;42.604;23.496;2024-02-04T08:23:39;10.97;;;5.23;;
6868;SDS011;3473;42.604;23.496;2024-02-04T08:25:10;12.83;;;5.83;;
6868;SDS011;3473;42.604;23.496;2024-02-04T08:26:42;6.97;;;3.90;;
6868;SDS011;3473;42.604;23.496;2024-02-04T08:28:13;7.50;;;4.73;;
6868;SDS011;3473;42.604;23.496;2024-02-04T08:29:45;4.90;;;3.67;;
6868;SDS011;3473;42.604;23.496;2024-02-04T08:31:15;8.07;;;4.97;;
6868;SDS011;3473;42.604;23.496;2024-02-04T08:32:49;8.10;;;4.63;;
6868;SDS011;3473;42.604;23.496;2024-02-04T08:34:20;14.07;;;6.47;;
6868;SDS011;3473;42.604;23.496;2024-02-04T08:35:54;13.27;;;6.63;;
6868;SDS011;3473;42.604;23.496;2024-02-04T08:37:25;12.13;;;6.83;;
6868;SDS011;3473;42.604;23.496;2024-02-04T08:38:56;11.03;;;5.70;;
6868;SDS011;3473;42.604;23.496;2024-02-04T08:40:28;10.07;;;5.70;;
6868;SDS011;3473;42.604;23.496;2024-02-04T08:41:58;7.63;;;4.07;;
6868;SDS011;3473;42.604;23.496;2024-02-04T08:43:30;5.47;;;3.70;;
6868;SDS011;3473;42.604;23.496;2024-02-04T08:45:01;4.03;;;3.20;;
6868;SDS011;3473;42.604;23.496;2024-02-04T08:46:32;3.23;;;2.47;;
6868;SDS011;3473;42.604;23.496;2024-02-04T08:48:05;2.90;;;2.30;;
6868;SDS011;3473;42.604;23.496;2024-02-04T08:49:37;3.90;;;2.33;;
6868;SDS011;3473;42.604;23.496;2024-02-04T12:53:10;4.17;;;2.90;;
6868;SDS011;3473;42.604;23.496;2024-02-04T12:54:43;7.17;;;5.50;;
6868;SDS011;3473;42.604;23.496;2024-02-04T12:56:14;23.97;;;17.97;;
6868;SDS011;3473;42.604;23.496;2024-02-04T12:57:46;68.60;;;46.67;;
6868;SDS011;3473;42.604;23.496;2024-02-04T12:59:25;46.23;;;29.43;;
6868;SDS011;3473;42.604;23.496;2024-02-04T13:01:00;35.03;;;24.33;;
6868;SDS011;3473;42.604;23.496;2024-02-04T13:02:31;10.00;;;7.47;;
6868;SDS011;3473;42.604;23.496;2024-02-04T13:04:04;32.83;;;24.40;;
6868;SDS011;3473;42.604;23.496;2024-02-04T13:05:35;17.67;;;12.60;;
6868;SDS011;3473;42.604;23.496;2024-02-04T13:07:07;7.40;;;6.03;;
6868;SDS011;3473;42.604;23.496;2024-02-04T13:08:40;17.97;;;12.37;;
6868;SDS011;3473;42.604;23.496;2024-02-04T13:10:13;35.03;;;27.20;;
6868;SDS011;3473;42.604;23.496;2024-02-04T13:11:44;19.57;;;14.77;;
6868;SDS011;3473;42.604;23.496;2024-02-04T13:13:16;4.77;;;4.17;;
6868;SDS011;3473;42.604;23.496;2024-02-04T13:14:47;9.50;;;6.97;;
6868;SDS011;3473;42.604;23.496;2024-02-04T13:16:19;3.90;;;3.10;;
6868;SDS011;3473;42.604;23.496;2024-02-04T13:17:49;12.03;;;8.93;;